sensor_id;sensor_type;location;lat;lon;timestamp;P1;durP1;ratioP1;P2;durP2;ratioP2
70733;SDS011;58320;48.804;9.252;2023-02-18T00:00:18;4.18;;;1.20;;
70733;SDS011;58320;48.804;9.252;2023-02-18T00:02:46;2.63;;;1.30;;
70733;SDS011;58320;48.804;9.252;2023-02-18T00:05:12;3.38;;;1.30;;
70733;SDS011;58320;48.804;9.252;2023-02-18T00:07:39;2.10;;;0.80;;
70733;SDS011;58320;48.804;9.252;2023-02-18T00:10:07;2.05;;;1.10;;
70733;SDS011;58320;48.804;9.252;2023-02-18T00:12:36;2.20;;;0.87;;
70733;SDS011;58320;48.804;9.252;2023-02-18T00:15:03;2.72;;;0.90;;
70733;SDS011;58320;48.804;9.252;2023-02-18T00:17:29;2.03;;;1.00;;
70733;SDS011;58320;48.804;9.252;2023-02-18T00:19:55;2.28;;;0.90;;
70733;SDS011;58320;48.804;9.252;2023-02-18T00:22:21;2.47;;;1.20;;
70733;SDS011;58320;48.804;9.252;2023-02-18T00:24:48;2.30;;;1.05;;
70733;SDS011;58320;48.804;9.252;2023-02-18T00:27:14;2.22;;;1.00;;
70733;SDS011;58320;48.804;9.252;2023-02-18T00:29:40;2.33;;;1.10;;
70733;SDS011;58320;48.804;9.252;2023-02-18T00:32:06;2.73;;;1.10;;
70733;SDS011;58320;48.804;9.252;2023-02-18T00:34:32;2.22;;;1.27;;
70733;SDS011;58320;48.804;9.252;2023-02-18T00:36:58;1.90;;;1.00;;
70733;SDS011;58320;48.804;9.252;2023-02-18T00:39:23;2.00;;;0.90;;
70733;SDS011;58320;48.804;9.252;2023-02-18T00:41:49;3.30;;;1.40;;
70733;SDS011;58320;48.804;9.252;2023-02-18T00:44:15;2.53;;;1.40;;
70733;SDS011;58320;48.804;9.252;2023-02-18T00:46:41;2.25;;;1.27;;
70733;SDS011;58320;48.804;9.252;2023-02-18T00:49:07;3.17;;;1.45;;
70733;SDS011;58320;48.804;9.252;2023-02-18T00:51:33;2.47;;;0.90;;
70733;SDS011;58320;48.804;9.252;2023-02-18T00:53:59;2.30;;;0.90;;
70733;SDS011;58320;48.804;9.252;2023-02-18T00:56:25;2.35;;;1.13;;
70733;SDS011;58320;48.804;9.252;2023-02-18T00:58:51;2.50;;;1.10;;
70733;SDS011;58320;48.804;9.252;2023-02-18T01:01:17;2.80;;;1.02;;
70733;SDS011;58320;48.804;9.252;2023-02-18T01:03:44;2.60;;;1.20;;
70733;SDS011;58320;48.804;9.252;2023-02-18T01:06:11;2.20;;;0.80;;
70733;SDS011;58320;48.804;9.252;2023-02-18T01:08:38;2.42;;;1.00;;
70733;SDS011;58320;48.804;9.252;2023-02-18T01:11:05;2.87;;;1.40;;
70733;SDS011;58320;48.804;9.252;2023-02-18T01:13:32;2.50;;;1.00;;
70733;SDS011;58320;48.804;9.252;2023-02-18T01:15:58;3.15;;;1.35;;
70733;SDS011;58320;48.804;9.252;2023-02-18T01:18:25;2.47;;;1.20;;
70733;SDS011;58320;48.804;9.252;2023-02-18T01:20:51;2.20;;;1.07;;
70733;SDS011;58320;48.804;9.252;2023-02-18T01:23:17;2.75;;;1.42;;
70733;SDS011;58320;48.804;9.252;2023-02-18T01:25:43;2.65;;;1.10;;
70733;SDS011;58320;48.804;9.252;2023-02-18T01:28:10;3.47;;;1.45;;
70733;SDS011;58320;48.804;9.252;2023-02-18T01:30:37;3.10;;;1.23;;
70733;SDS011;58320;48.804;9.252;2023-02-18T01:33:04;3.27;;;1.20;;
70733;SDS011;58320;48.804;9.252;2023-02-18T01:35:30;2.03;;;1.00;;
70733;SDS011;58320;48.804;9.252;2023-02-18T01:37:55;2.38;;;1.15;;
70733;SDS011;58320;48.804;9.252;2023-02-18T01:40:24;2.70;;;1.33;;
70733;SDS011;58320;48.804;9.252;2023-02-18T01:42:53;2.60;;;1.10;;
70733;SDS011;58320;48.804;9.252;2023-02-18T01:48:04;2.33;;;1.08;;
70733;SDS011;58320;48.804;9.252;2023-02-18T01:50:30;2.65;;;1.33;;
70733;SDS011;58320;48.804;9.252;2023-02-18T01:52:59;3.80;;;1.10;;
70733;SDS011;58320;48.804;9.252;2023-02-18T01:55:26;2.90;;;1.40;;
70733;SDS011;58320;48.804;9.252;2023-02-18T01:57:52;2.97;;;1.27;;
70733;SDS011;58320;48.804;9.252;2023-02-18T02:00:19;2.92;;;1.20;;
70733;SDS011;58320;48.804;9.252;2023-02-18T02:02:48;3.45;;;1.40;;
70733;SDS011;58320;48.804;9.252;2023-02-18T02:05:16;3.27;;;1.20;;
70733;SDS011;58320;48.804;9.252;2023-02-18T02:07:44;2.33;;;1.00;;
70733;SDS011;58320;48.804;9.252;2023-02-18T02:10:13;2.67;;;1.20;;
70733;SDS011;58320;48.804;9.252;2023-02-18T02:26:59;2.70;;;1.30;;
70733;SDS011;58320;48.804;9.252;2023-02-18T02:39:18;2.72;;;1.50;;
70733;SDS011;58320;48.804;9.252;2023-02-18T02:42:23;2.88;;;1.35;;
70733;SDS011;58320;48.804;9.252;2023-02-18T02:45:53;3.45;;;1.50;;
70733;SDS011;58320;48.804;9.252;2023-02-18T02:51:34;2.65;;;1.15;;
70733;SDS011;58320;48.804;9.252;2023-02-18T02:53:46;4.28;;;1.40;;
70733;SDS011;58320;48.804;9.252;2023-02-18T02:56:19;2.70;;;1.40;;
70733;SDS011;58320;48.804;9.252;2023-02-18T02:58:58;2.87;;;1.13;;
70733;SDS011;58320;48.804;9.252;2023-02-18T03:10:16;2.95;;;1.35;;
70733;SDS011;58320;48.804;9.252;2023-02-18T03:16:25;3.08;;;1.42;;
70733;SDS011;58320;48.804;9.252;2023-02-18T03:21:56;5.35;;;1.60;;
70733;SDS011;58320;48.804;9.252;2023-02-18T03:24:31;3.63;;;1.65;;
70733;SDS011;58320;48.804;9.252;2023-02-18T03:27:24;3.07;;;1.43;;
70733;SDS011;58320;48.804;9.252;2023-02-18T03:29:56;2.90;;;1.20;;
70733;SDS011;58320;48.804;9.252;2023-02-18T03:32:49;2.50;;;1.40;;
70733;SDS011;58320;48.804;9.252;2023-02-18T03:35:21;2.83;;;1.50;;
70733;SDS011;58320;48.804;9.252;2023-02-18T03:37:53;3.13;;;1.60;;
70733;SDS011;58320;48.804;9.252;2023-02-18T03:40:34;5.57;;;1.83;;
70733;SDS011;58320;48.804;9.252;2023-02-18T03:43:00;2.58;;;1.40;;
70733;SDS011;58320;48.804;9.252;2023-02-18T03:45:26;3.15;;;1.77;;
70733;SDS011;58320;48.804;9.252;2023-02-18T03:47:52;3.22;;;1.60;;
70733;SDS011;58320;48.804;9.252;2023-02-18T03:50:18;2.90;;;1.30;;
70733;SDS011;58320;48.804;9.252;2023-02-18T03:52:44;3.33;;;1.23;;
70733;SDS011;58320;48.804;9.252;2023-02-18T03:55:10;4.38;;;1.90;;
70733;SDS011;58320;48.804;9.252;2023-02-18T03:57:36;3.38;;;1.30;;
70733;SDS011;58320;48.804;9.252;2023-02-18T04:00:03;2.70;;;1.52;;
70733;SDS011;58320;48.804;9.252;2023-02-18T04:02:30;3.17;;;1.80;;
70733;SDS011;58320;48.804;9.252;2023-02-18T04:04:57;2.90;;;1.52;;
70733;SDS011;58320;48.804;9.252;2023-02-18T04:07:23;3.17;;;1.52;;
70733;SDS011;58320;48.804;9.252;2023-02-18T04:09:48;4.80;;;1.50;;
70733;SDS011;58320;48.804;9.252;2023-02-18T04:12:14;3.35;;;1.75;;
70733;SDS011;58320;48.804;9.252;2023-02-18T04:14:40;3.08;;;1.50;;
70733;SDS011;58320;48.804;9.252;2023-02-18T04:17:06;3.37;;;1.30;;
70733;SDS011;58320;48.804;9.252;2023-02-18T04:19:32;3.03;;;1.30;;
70733;SDS011;58320;48.804;9.252;2023-02-18T04:21:57;3.80;;;1.40;;
70733;SDS011;58320;48.804;9.252;2023-02-18T04:24:23;2.70;;;1.53;;
70733;SDS011;58320;48.804;9.252;2023-02-18T04:26:49;2.90;;;1.50;;
70733;SDS011;58320;48.804;9.252;2023-02-18T04:29:14;3.60;;;2.07;;
70733;SDS011;58320;48.804;9.252;2023-02-18T04:31:40;3.97;;;1.73;;
70733;SDS011;58320;48.804;9.252;2023-02-18T04:34:06;2.97;;;1.40;;
70733;SDS011;58320;48.804;9.252;2023-02-18T04:36:32;3.63;;;1.20;;
70733;SDS011;58320;48.804;9.252;2023-02-18T04:38:57;2.85;;;1.42;;
70733;SDS011;58320;48.804;9.252;2023-02-18T04:41:23;4.40;;;1.50;;
70733;SDS011;58320;48.804;9.252;2023-02-18T04:43:49;2.75;;;1.30;;
70733;SDS011;58320;48.804;9.252;2023-02-18T04:46:15;3.42;;;1.65;;
70733;SDS011;58320;48.804;9.252;2023-02-18T04:48:41;3.03;;;1.53;;
70733;SDS011;58320;48.804;9.252;2023-02-18T04:51:07;4.45;;;1.75;;
70733;SDS011;58320;48.804;9.252;2023-02-18T04:53:33;4.28;;;1.50;;
70733;SDS011;58320;48.804;9.252;2023-02-18T04:55:58;3.17;;;1.27;;
70733;SDS011;58320;48.804;9.252;2023-02-18T04:58:24;3.35;;;1.55;;
70733;SDS011;58320;48.804;9.252;2023-02-18T05:00:50;3.30;;;1.67;;
70733;SDS011;58320;48.804;9.252;2023-02-18T05:03:17;3.55;;;1.48;;
70733;SDS011;58320;48.804;9.252;2023-02-18T05:05:43;3.83;;;1.80;;
70733;SDS011;58320;48.804;9.252;2023-02-18T05:08:10;3.88;;;1.65;;
70733;SDS011;58320;48.804;9.252;2023-02-18T05:10:36;3.97;;;1.67;;
70733;SDS011;58320;48.804;9.252;2023-02-18T05:13:03;3.13;;;1.40;;
70733;SDS011;58320;48.804;9.252;2023-02-18T05:15:28;3.10;;;1.75;;
70733;SDS011;58320;48.804;9.252;2023-02-18T05:17:54;2.70;;;1.20;;
70733;SDS011;58320;48.804;9.252;2023-02-18T05:20:20;4.07;;;1.70;;
70733;SDS011;58320;48.804;9.252;2023-02-18T05:22:46;3.72;;;1.58;;
70733;SDS011;58320;48.804;9.252;2023-02-18T05:25:11;4.20;;;1.60;;
70733;SDS011;58320;48.804;9.252;2023-02-18T05:27:37;4.22;;;1.40;;
70733;SDS011;58320;48.804;9.252;2023-02-18T05:30:03;3.00;;;1.60;;
70733;SDS011;58320;48.804;9.252;2023-02-18T05:32:30;3.22;;;1.38;;
70733;SDS011;58320;48.804;9.252;2023-02-18T05:34:55;3.15;;;1.30;;
70733;SDS011;58320;48.804;9.252;2023-02-18T05:37:21;3.03;;;1.60;;
70733;SDS011;58320;48.804;9.252;2023-02-18T05:39:47;3.00;;;1.45;;
70733;SDS011;58320;48.804;9.252;2023-02-18T05:42:13;4.40;;;1.30;;
70733;SDS011;58320;48.804;9.252;2023-02-18T05:44:38;3.17;;;1.30;;
70733;SDS011;58320;48.804;9.252;2023-02-18T05:47:06;3.30;;;0.93;;
70733;SDS011;58320;48.804;9.252;2023-02-18T05:49:35;3.13;;;1.35;;
70733;SDS011;58320;48.804;9.252;2023-02-18T05:52:02;3.40;;;1.73;;
70733;SDS011;58320;48.804;9.252;2023-02-18T05:54:29;3.10;;;1.50;;
70733;SDS011;58320;48.804;9.252;2023-02-18T05:56:55;3.13;;;1.58;;
70733;SDS011;58320;48.804;9.252;2023-02-18T05:59:21;3.17;;;1.67;;
70733;SDS011;58320;48.804;9.252;2023-02-18T06:01:47;3.05;;;1.40;;
70733;SDS011;58320;48.804;9.252;2023-02-18T06:04:13;2.90;;;1.53;;
70733;SDS011;58320;48.804;9.252;2023-02-18T06:06:39;3.53;;;1.92;;
70733;SDS011;58320;48.804;9.252;2023-02-18T06:09:06;4.50;;;1.55;;
70733;SDS011;58320;48.804;9.252;2023-02-18T06:11:32;3.45;;;1.65;;
70733;SDS011;58320;48.804;9.252;2023-02-18T06:13:59;3.43;;;1.50;;
70733;SDS011;58320;48.804;9.252;2023-02-18T06:16:25;3.25;;;1.52;;
70733;SDS011;58320;48.804;9.252;2023-02-18T06:18:51;3.03;;;1.50;;
70733;SDS011;58320;48.804;9.252;2023-02-18T06:21:17;3.03;;;1.50;;
70733;SDS011;58320;48.804;9.252;2023-02-18T06:23:43;3.10;;;1.53;;
70733;SDS011;58320;48.804;9.252;2023-02-18T06:26:09;3.45;;;1.40;;
70733;SDS011;58320;48.804;9.252;2023-02-18T06:28:35;3.67;;;1.70;;
70733;SDS011;58320;48.804;9.252;2023-02-18T06:31:00;2.43;;;1.30;;
70733;SDS011;58320;48.804;9.252;2023-02-18T06:33:26;4.43;;;1.63;;
70733;SDS011;58320;48.804;9.252;2023-02-18T06:35:56;3.40;;;1.93;;
70733;SDS011;58320;48.804;9.252;2023-02-18T06:38:27;2.90;;;1.38;;
70733;SDS011;58320;48.804;9.252;2023-02-18T06:40:53;3.17;;;1.58;;
70733;SDS011;58320;48.804;9.252;2023-02-18T06:43:19;3.27;;;1.57;;
70733;SDS011;58320;48.804;9.252;2023-02-18T06:45:45;4.30;;;1.58;;
70733;SDS011;58320;48.804;9.252;2023-02-18T06:48:11;3.30;;;1.40;;
70733;SDS011;58320;48.804;9.252;2023-02-18T06:50:37;3.58;;;1.52;;
70733;SDS011;58320;48.804;9.252;2023-02-18T06:53:04;3.65;;;1.80;;
70733;SDS011;58320;48.804;9.252;2023-02-18T06:55:30;3.07;;;1.40;;
70733;SDS011;58320;48.804;9.252;2023-02-18T06:57:56;3.25;;;1.70;;
70733;SDS011;58320;48.804;9.252;2023-02-18T07:00:22;3.93;;;1.40;;
70733;SDS011;58320;48.804;9.252;2023-02-18T07:02:48;4.57;;;1.50;;
70733;SDS011;58320;48.804;9.252;2023-02-18T07:05:14;3.00;;;1.42;;
70733;SDS011;58320;48.804;9.252;2023-02-18T07:07:40;3.40;;;1.60;;
70733;SDS011;58320;48.804;9.252;2023-02-18T07:10:06;3.27;;;1.67;;
70733;SDS011;58320;48.804;9.252;2023-02-18T07:12:32;4.32;;;1.55;;
70733;SDS011;58320;48.804;9.252;2023-02-18T07:14:58;3.13;;;1.85;;
70733;SDS011;58320;48.804;9.252;2023-02-18T07:17:24;3.20;;;1.23;;
70733;SDS011;58320;48.804;9.252;2023-02-18T07:19:49;3.30;;;1.65;;
70733;SDS011;58320;48.804;9.252;2023-02-18T07:22:15;3.73;;;1.97;;
70733;SDS011;58320;48.804;9.252;2023-02-18T07:24:41;3.75;;;1.25;;
70733;SDS011;58320;48.804;9.252;2023-02-18T07:27:07;2.85;;;1.50;;
70733;SDS011;58320;48.804;9.252;2023-02-18T07:29:33;3.33;;;1.58;;
70733;SDS011;58320;48.804;9.252;2023-02-18T07:31:59;3.50;;;2.10;;
70733;SDS011;58320;48.804;9.252;2023-02-18T07:34:24;4.75;;;1.73;;
70733;SDS011;58320;48.804;9.252;2023-02-18T07:36:50;3.70;;;1.30;;
70733;SDS011;58320;48.804;9.252;2023-02-18T07:39:16;3.55;;;1.83;;
70733;SDS011;58320;48.804;9.252;2023-02-18T07:41:44;3.40;;;1.80;;
70733;SDS011;58320;48.804;9.252;2023-02-18T07:44:12;3.00;;;1.37;;
70733;SDS011;58320;48.804;9.252;2023-02-18T07:46:39;3.33;;;1.40;;
70733;SDS011;58320;48.804;9.252;2023-02-18T07:49:06;3.05;;;1.52;;
70733;SDS011;58320;48.804;9.252;2023-02-18T07:51:32;3.20;;;1.73;;
70733;SDS011;58320;48.804;9.252;2023-02-18T07:53:58;2.90;;;1.50;;
70733;SDS011;58320;48.804;9.252;2023-02-18T07:56:24;3.70;;;2.00;;
70733;SDS011;58320;48.804;9.252;2023-02-18T07:58:50;3.23;;;1.50;;
70733;SDS011;58320;48.804;9.252;2023-02-18T08:01:15;3.47;;;1.73;;
70733;SDS011;58320;48.804;9.252;2023-02-18T08:03:41;3.80;;;1.97;;
70733;SDS011;58320;48.804;9.252;2023-02-18T08:06:07;3.57;;;1.77;;
70733;SDS011;58320;48.804;9.252;2023-02-18T08:08:37;5.10;;;1.85;;
70733;SDS011;58320;48.804;9.252;2023-02-18T08:11:03;3.50;;;1.80;;
70733;SDS011;58320;48.804;9.252;2023-02-18T08:13:31;4.00;;;2.07;;
70733;SDS011;58320;48.804;9.252;2023-02-18T08:15:57;3.63;;;2.15;;
70733;SDS011;58320;48.804;9.252;2023-02-18T08:18:24;3.30;;;1.88;;
70733;SDS011;58320;48.804;9.252;2023-02-18T08:20:51;3.30;;;1.50;;
70733;SDS011;58320;48.804;9.252;2023-02-18T08:23:18;3.40;;;1.70;;
70733;SDS011;58320;48.804;9.252;2023-02-18T08:25:47;3.33;;;1.63;;
70733;SDS011;58320;48.804;9.252;2023-02-18T08:28:16;4.97;;;1.80;;
70733;SDS011;58320;48.804;9.252;2023-02-18T08:30:47;3.35;;;1.50;;
70733;SDS011;58320;48.804;9.252;2023-02-18T08:33:15;6.00;;;3.80;;
70733;SDS011;58320;48.804;9.252;2023-02-18T08:35:42;5.73;;;2.50;;
70733;SDS011;58320;48.804;9.252;2023-02-18T08:38:09;3.78;;;1.77;;
70733;SDS011;58320;48.804;9.252;2023-02-18T08:40:35;3.00;;;1.60;;
70733;SDS011;58320;48.804;9.252;2023-02-18T08:43:01;3.33;;;1.60;;
70733;SDS011;58320;48.804;9.252;2023-02-18T08:45:27;3.50;;;1.60;;
70733;SDS011;58320;48.804;9.252;2023-02-18T08:47:53;3.73;;;1.93;;
70733;SDS011;58320;48.804;9.252;2023-02-18T08:50:19;3.20;;;1.92;;
70733;SDS011;58320;48.804;9.252;2023-02-18T08:52:49;3.08;;;1.40;;
70733;SDS011;58320;48.804;9.252;2023-02-18T08:55:18;3.40;;;1.80;;
70733;SDS011;58320;48.804;9.252;2023-02-18T08:57:48;4.10;;;1.90;;
70733;SDS011;58320;48.804;9.252;2023-02-18T09:00:15;3.72;;;1.90;;
70733;SDS011;58320;48.804;9.252;2023-02-18T09:02:42;2.83;;;1.45;;
70733;SDS011;58320;48.804;9.252;2023-02-18T09:05:08;6.40;;;1.85;;
70733;SDS011;58320;48.804;9.252;2023-02-18T09:07:35;4.43;;;1.60;;
70733;SDS011;58320;48.804;9.252;2023-02-18T09:10:01;5.78;;;1.52;;
70733;SDS011;58320;48.804;9.252;2023-02-18T09:12:27;4.43;;;1.60;;
70733;SDS011;58320;48.804;9.252;2023-02-18T09:14:54;3.20;;;1.40;;
70733;SDS011;58320;48.804;9.252;2023-02-18T09:17:19;2.73;;;1.13;;
70733;SDS011;58320;48.804;9.252;2023-02-18T09:19:45;2.80;;;1.30;;
70733;SDS011;58320;48.804;9.252;2023-02-18T09:22:11;2.93;;;1.47;;
70733;SDS011;58320;48.804;9.252;2023-02-18T09:24:37;2.53;;;1.02;;
70733;SDS011;58320;48.804;9.252;2023-02-18T09:27:05;3.97;;;1.20;;
70733;SDS011;58320;48.804;9.252;2023-02-18T09:29:31;3.30;;;1.20;;
70733;SDS011;58320;48.804;9.252;2023-02-18T09:32:00;3.53;;;1.30;;
70733;SDS011;58320;48.804;9.252;2023-02-18T09:34:27;2.43;;;1.13;;
70733;SDS011;58320;48.804;9.252;2023-02-18T09:36:53;2.58;;;1.10;;
70733;SDS011;58320;48.804;9.252;2023-02-18T09:39:19;3.60;;;1.15;;
70733;SDS011;58320;48.804;9.252;2023-02-18T09:41:49;2.83;;;1.30;;
70733;SDS011;58320;48.804;9.252;2023-02-18T09:44:25;2.63;;;1.33;;
70733;SDS011;58320;48.804;9.252;2023-02-18T09:46:58;2.70;;;1.20;;
70733;SDS011;58320;48.804;9.252;2023-02-18T09:49:36;2.50;;;1.10;;
70733;SDS011;58320;48.804;9.252;2023-02-18T09:54:40;4.65;;;1.10;;
70733;SDS011;58320;48.804;9.252;2023-02-18T09:57:06;2.80;;;1.20;;
70733;SDS011;58320;48.804;9.252;2023-02-18T09:59:49;3.63;;;1.60;;
70733;SDS011;58320;48.804;9.252;2023-02-18T10:02:25;3.17;;;1.10;;
70733;SDS011;58320;48.804;9.252;2023-02-18T10:04:52;2.97;;;1.00;;
70733;SDS011;58320;48.804;9.252;2023-02-18T10:07:27;2.83;;;1.15;;
70733;SDS011;58320;48.804;9.252;2023-02-18T10:09:56;2.60;;;1.10;;
70733;SDS011;58320;48.804;9.252;2023-02-18T10:12:35;2.33;;;1.20;;
70733;SDS011;58320;48.804;9.252;2023-02-18T10:15:02;2.95;;;1.08;;
70733;SDS011;58320;48.804;9.252;2023-02-18T10:17:31;2.83;;;1.35;;
70733;SDS011;58320;48.804;9.252;2023-02-18T10:19:58;2.83;;;1.30;;
70733;SDS011;58320;48.804;9.252;2023-02-18T10:22:24;3.03;;;1.10;;
70733;SDS011;58320;48.804;9.252;2023-02-18T10:24:56;2.53;;;1.10;;
70733;SDS011;58320;48.804;9.252;2023-02-18T10:29:58;2.75;;;1.00;;
70733;SDS011;58320;48.804;9.252;2023-02-18T10:33:10;2.67;;;1.10;;
70733;SDS011;58320;48.804;9.252;2023-02-18T10:36:22;3.03;;;0.87;;
70733;SDS011;58320;48.804;9.252;2023-02-18T10:53:00;2.42;;;1.02;;
70733;SDS011;58320;48.804;9.252;2023-02-18T10:55:44;3.72;;;1.17;;
70733;SDS011;58320;48.804;9.252;2023-02-18T11:01:02;2.50;;;1.17;;
70733;SDS011;58320;48.804;9.252;2023-02-18T11:03:43;2.40;;;1.00;;
70733;SDS011;58320;48.804;9.252;2023-02-18T11:09:04;3.22;;;1.30;;
70733;SDS011;58320;48.804;9.252;2023-02-18T11:11:37;4.15;;;1.35;;
70733;SDS011;58320;48.804;9.252;2023-02-18T11:14:05;2.92;;;1.50;;
70733;SDS011;58320;48.804;9.252;2023-02-18T11:16:39;2.60;;;1.13;;
70733;SDS011;58320;48.804;9.252;2023-02-18T11:22:14;3.03;;;1.20;;
70733;SDS011;58320;48.804;9.252;2023-02-18T11:24:45;3.22;;;1.05;;
70733;SDS011;58320;48.804;9.252;2023-02-18T11:27:21;3.83;;;1.42;;
70733;SDS011;58320;48.804;9.252;2023-02-18T11:29:52;2.40;;;1.00;;
70733;SDS011;58320;48.804;9.252;2023-02-18T11:32:26;2.42;;;1.23;;
70733;SDS011;58320;48.804;9.252;2023-02-18T11:34:55;2.95;;;1.10;;
70733;SDS011;58320;48.804;9.252;2023-02-18T11:37:21;2.47;;;1.00;;
70733;SDS011;58320;48.804;9.252;2023-02-18T11:39:48;2.75;;;1.00;;
70733;SDS011;58320;48.804;9.252;2023-02-18T11:42:20;3.43;;;1.40;;
70733;SDS011;58320;48.804;9.252;2023-02-18T11:44:52;2.90;;;1.30;;
70733;SDS011;58320;48.804;9.252;2023-02-18T11:47:43;2.47;;;1.30;;
70733;SDS011;58320;48.804;9.252;2023-02-18T11:52:34;2.80;;;1.27;;
70733;SDS011;58320;48.804;9.252;2023-02-18T11:55:16;3.42;;;1.20;;
70733;SDS011;58320;48.804;9.252;2023-02-18T12:00:29;2.53;;;1.13;;
70733;SDS011;58320;48.804;9.252;2023-02-18T12:03:14;6.73;;;1.30;;
70733;SDS011;58320;48.804;9.252;2023-02-18T12:06:30;2.35;;;1.00;;
70733;SDS011;58320;48.804;9.252;2023-02-18T12:09:16;3.00;;;1.13;;
70733;SDS011;58320;48.804;9.252;2023-02-18T12:11:53;2.60;;;1.00;;
70733;SDS011;58320;48.804;9.252;2023-02-18T12:14:23;3.42;;;1.52;;
70733;SDS011;58320;48.804;9.252;2023-02-18T12:23:07;2.60;;;1.10;;
70733;SDS011;58320;48.804;9.252;2023-02-18T12:37:02;4.00;;;1.23;;
70733;SDS011;58320;48.804;9.252;2023-02-18T12:44:03;3.80;;;1.60;;
70733;SDS011;58320;48.804;9.252;2023-02-18T12:51:58;4.05;;;1.50;;
70733;SDS011;58320;48.804;9.252;2023-02-18T12:57:30;3.53;;;1.75;;
70733;SDS011;58320;48.804;9.252;2023-02-18T13:06:46;4.03;;;1.45;;
70733;SDS011;58320;48.804;9.252;2023-02-18T13:12:33;3.25;;;1.67;;
70733;SDS011;58320;48.804;9.252;2023-02-18T13:18:32;3.60;;;1.85;;
70733;SDS011;58320;48.804;9.252;2023-02-18T13:21:05;3.20;;;1.50;;
70733;SDS011;58320;48.804;9.252;2023-02-18T13:26:30;3.33;;;1.67;;
70733;SDS011;58320;48.804;9.252;2023-02-18T13:32:00;3.10;;;1.50;;
70733;SDS011;58320;48.804;9.252;2023-02-18T13:34:53;4.72;;;1.85;;
70733;SDS011;58320;48.804;9.252;2023-02-18T13:40:47;3.08;;;1.75;;
70733;SDS011;58320;48.804;9.252;2023-02-18T13:46:07;3.83;;;1.85;;
70733;SDS011;58320;48.804;9.252;2023-02-18T14:00:03;3.60;;;1.40;;
70733;SDS011;58320;48.804;9.252;2023-02-18T14:02:54;3.65;;;1.88;;
70733;SDS011;58320;48.804;9.252;2023-02-18T14:05:23;4.82;;;1.40;;
70733;SDS011;58320;48.804;9.252;2023-02-18T14:13:54;5.13;;;1.80;;
70733;SDS011;58320;48.804;9.252;2023-02-18T14:31:15;6.25;;;2.00;;
70733;SDS011;58320;48.804;9.252;2023-02-18T14:34:04;4.40;;;2.13;;
70733;SDS011;58320;48.804;9.252;2023-02-18T14:39:47;4.72;;;2.00;;
70733;SDS011;58320;48.804;9.252;2023-02-18T14:51:18;4.78;;;1.90;;
70733;SDS011;58320;48.804;9.252;2023-02-18T14:53:48;3.17;;;1.58;;
70733;SDS011;58320;48.804;9.252;2023-02-18T14:56:15;2.88;;;1.17;;
70733;SDS011;58320;48.804;9.252;2023-02-18T14:58:45;3.00;;;1.60;;
70733;SDS011;58320;48.804;9.252;2023-02-18T15:03:51;3.67;;;1.90;;
70733;SDS011;58320;48.804;9.252;2023-02-18T15:09:00;3.22;;;1.60;;
70733;SDS011;58320;48.804;9.252;2023-02-18T15:11:38;3.30;;;1.73;;
70733;SDS011;58320;48.804;9.252;2023-02-18T15:14:29;3.00;;;1.50;;
70733;SDS011;58320;48.804;9.252;2023-02-18T15:16:59;3.45;;;1.70;;
70733;SDS011;58320;48.804;9.252;2023-02-18T15:19:26;3.17;;;1.60;;
70733;SDS011;58320;48.804;9.252;2023-02-18T15:22:01;3.65;;;2.13;;
70733;SDS011;58320;48.804;9.252;2023-02-18T15:24:31;3.43;;;1.93;;
70733;SDS011;58320;48.804;9.252;2023-02-18T15:27:01;3.08;;;1.48;;
70733;SDS011;58320;48.804;9.252;2023-02-18T15:29:39;2.67;;;1.35;;
70733;SDS011;58320;48.804;9.252;2023-02-18T15:32:13;3.35;;;1.50;;
70733;SDS011;58320;48.804;9.252;2023-02-18T15:34:48;2.95;;;1.52;;
70733;SDS011;58320;48.804;9.252;2023-02-18T15:37:16;3.73;;;1.70;;
70733;SDS011;58320;48.804;9.252;2023-02-18T15:39:42;3.58;;;1.50;;
70733;SDS011;58320;48.804;9.252;2023-02-18T15:45:14;3.50;;;1.60;;
70733;SDS011;58320;48.804;9.252;2023-02-18T15:47:46;4.32;;;1.75;;
70733;SDS011;58320;48.804;9.252;2023-02-18T15:50:17;3.23;;;1.70;;
70733;SDS011;58320;48.804;9.252;2023-02-18T15:52:47;3.40;;;1.73;;
70733;SDS011;58320;48.804;9.252;2023-02-18T15:55:56;3.63;;;1.52;;
70733;SDS011;58320;48.804;9.252;2023-02-18T15:58:12;3.38;;;1.60;;
70733;SDS011;58320;48.804;9.252;2023-02-18T16:03:24;3.47;;;1.90;;
70733;SDS011;58320;48.804;9.252;2023-02-18T16:05:51;3.63;;;1.70;;
70733;SDS011;58320;48.804;9.252;2023-02-18T16:08:54;3.42;;;1.60;;
70733;SDS011;58320;48.804;9.252;2023-02-18T16:11:24;3.03;;;1.40;;
70733;SDS011;58320;48.804;9.252;2023-02-18T16:14:03;3.10;;;1.90;;
70733;SDS011;58320;48.804;9.252;2023-02-18T16:16:34;4.53;;;1.90;;
70733;SDS011;58320;48.804;9.252;2023-02-18T16:19:03;3.95;;;1.95;;
70733;SDS011;58320;48.804;9.252;2023-02-18T16:24:20;3.83;;;1.63;;
70733;SDS011;58320;48.804;9.252;2023-02-18T16:26:58;4.85;;;2.10;;
70733;SDS011;58320;48.804;9.252;2023-02-18T16:29:32;3.23;;;1.83;;
70733;SDS011;58320;48.804;9.252;2023-02-18T16:32:05;7.38;;;2.20;;
70733;SDS011;58320;48.804;9.252;2023-02-18T16:34:31;5.50;;;1.77;;
70733;SDS011;58320;48.804;9.252;2023-02-18T16:36:57;3.70;;;2.00;;
70733;SDS011;58320;48.804;9.252;2023-02-18T16:39:42;3.85;;;1.98;;
70733;SDS011;58320;48.804;9.252;2023-02-18T16:42:11;5.35;;;1.90;;
70733;SDS011;58320;48.804;9.252;2023-02-18T16:44:38;3.67;;;1.80;;
70733;SDS011;58320;48.804;9.252;2023-02-18T16:47:04;4.80;;;2.17;;
70733;SDS011;58320;48.804;9.252;2023-02-18T16:49:31;3.85;;;1.83;;
70733;SDS011;58320;48.804;9.252;2023-02-18T16:51:58;4.60;;;2.58;;
70733;SDS011;58320;48.804;9.252;2023-02-18T16:54:26;4.00;;;1.75;;
70733;SDS011;58320;48.804;9.252;2023-02-18T16:56:53;4.50;;;1.77;;
70733;SDS011;58320;48.804;9.252;2023-02-18T16:59:18;3.93;;;1.87;;
70733;SDS011;58320;48.804;9.252;2023-02-18T17:01:44;4.93;;;2.05;;
70733;SDS011;58320;48.804;9.252;2023-02-18T17:04:14;4.63;;;2.20;;
70733;SDS011;58320;48.804;9.252;2023-02-18T17:06:42;5.10;;;2.10;;
70733;SDS011;58320;48.804;9.252;2023-02-18T17:09:17;4.63;;;1.90;;
70733;SDS011;58320;48.804;9.252;2023-02-18T17:11:47;5.07;;;2.53;;
70733;SDS011;58320;48.804;9.252;2023-02-18T17:14:15;3.85;;;1.70;;
70733;SDS011;58320;48.804;9.252;2023-02-18T17:16:43;3.83;;;2.03;;
70733;SDS011;58320;48.804;9.252;2023-02-18T17:19:13;4.87;;;2.00;;
70733;SDS011;58320;48.804;9.252;2023-02-18T17:21:40;5.68;;;2.00;;
70733;SDS011;58320;48.804;9.252;2023-02-18T17:24:10;4.28;;;2.28;;
70733;SDS011;58320;48.804;9.252;2023-02-18T17:26:41;3.50;;;1.88;;
70733;SDS011;58320;48.804;9.252;2023-02-18T17:29:07;4.10;;;1.80;;
70733;SDS011;58320;48.804;9.252;2023-02-18T17:31:37;4.13;;;1.73;;
70733;SDS011;58320;48.804;9.252;2023-02-18T17:34:08;3.50;;;1.77;;
70733;SDS011;58320;48.804;9.252;2023-02-18T17:36:43;3.95;;;2.10;;
70733;SDS011;58320;48.804;9.252;2023-02-18T17:39:13;3.60;;;1.63;;
70733;SDS011;58320;48.804;9.252;2023-02-18T17:41:41;5.00;;;2.25;;
70733;SDS011;58320;48.804;9.252;2023-02-18T17:44:14;3.40;;;1.90;;
70733;SDS011;58320;48.804;9.252;2023-02-18T17:46:42;3.53;;;1.92;;
70733;SDS011;58320;48.804;9.252;2023-02-18T17:49:08;3.78;;;2.00;;
70733;SDS011;58320;48.804;9.252;2023-02-18T17:51:34;3.90;;;1.90;;
70733;SDS011;58320;48.804;9.252;2023-02-18T17:54:02;3.63;;;2.10;;
70733;SDS011;58320;48.804;9.252;2023-02-18T17:56:35;5.45;;;1.98;;
70733;SDS011;58320;48.804;9.252;2023-02-18T17:59:01;4.13;;;2.03;;
70733;SDS011;58320;48.804;9.252;2023-02-18T18:01:27;4.53;;;2.20;;
70733;SDS011;58320;48.804;9.252;2023-02-18T18:03:53;4.43;;;2.20;;
70733;SDS011;58320;48.804;9.252;2023-02-18T18:06:19;3.97;;;2.10;;
70733;SDS011;58320;48.804;9.252;2023-02-18T18:08:46;3.63;;;2.00;;
70733;SDS011;58320;48.804;9.252;2023-02-18T18:11:16;3.70;;;2.40;;
70733;SDS011;58320;48.804;9.252;2023-02-18T18:13:48;4.07;;;2.33;;